Terminal Aerodrome Forecast
Issued by NWS Albuquerque, NM

Home | Current Version | Previous Version | Text Only | Print | Product List | Glossary On
Versions: 1 2 3 4 5 6 7 8 9 10 11 12 13
000
FTUS45 KABQ 202331
TAFABQ
TAF
KABQ 202331Z 2100/2124 20013G21KT P6SM BKN100
     FM210600 25016G24KT P6SM -RASN OVC040
     FM210900 23010KT P6SM OVC050
     FM211500 24012G20KT P6SM BKN050
     FM211800 29026G36KT P6SM BKN060=

USA.gov is the U.S. government's official web portal to all federal, state and local government web resources and services.